createdAt,value
2023-10-28T00:00:31.548Z,96979.31
2023-10-28T00:01:33.996Z,96981.69
2023-10-28T00:02:36.370Z,96981.69
2023-10-28T00:03:38.941Z,96985.28
2023-10-28T00:04:41.602Z,96976.72
2023-10-28T00:05:44.011Z,96984.59
2023-10-28T00:06:46.291Z,96984.94
2023-10-28T00:07:48.601Z,96978.84
2023-10-28T00:08:50.902Z,96975.00
2023-10-28T00:09:53.237Z,96980.06
2023-10-28T00:10:55.985Z,96980.84
2023-10-28T00:11:58.617Z,96980.94
2023-10-28T00:13:01.096Z,96981.72
2023-10-28T00:14:04.056Z,96987.56
2023-10-28T00:15:07.387Z,96976.75
2023-10-28T00:16:09.838Z,96982.28
2023-10-28T00:17:12.289Z,96978.06
2023-10-28T00:18:15.303Z,96971.06
2023-10-28T00:19:17.541Z,96978.84
2023-10-28T00:20:20.849Z,96990.84
2023-10-28T00:21:23.388Z,96986.47
2023-10-28T00:22:25.713Z,96990.91
2023-10-28T00:23:28.219Z,96981.00
2023-10-28T00:24:30.536Z,96986.97
2023-10-28T00:25:33.349Z,96981.75
2023-10-28T00:26:35.790Z,96991.59
2023-10-28T00:27:38.045Z,96990.25
2023-10-28T00:28:41.246Z,96991.19
2023-10-28T00:29:43.746Z,96990.28
2023-10-28T00:30:46.058Z,96988.19
2023-10-28T00:31:48.954Z,96993.72
2023-10-28T00:32:58.854Z,96994.72
2023-10-28T00:34:01.242Z,96989.91
2023-10-28T00:35:03.802Z,96995.88
2023-10-28T00:36:10.831Z,96994.22
2023-10-28T00:37:13.374Z,97003.59
2023-10-28T00:38:17.931Z,96994.09
2023-10-28T00:39:20.561Z,96993.13
2023-10-28T00:40:32.740Z,96995.34
2023-10-28T00:41:35.478Z,96996.72
2023-10-28T00:42:38.204Z,96995.69
2023-10-28T00:43:41.035Z,96995.91
2023-10-28T00:44:43.765Z,96999.63
2023-10-28T00:45:46.274Z,96998.28
2023-10-28T00:46:48.923Z,96999.63
2023-10-28T00:47:53.938Z,96998.38
2023-10-28T00:48:56.717Z,96997.47
2023-10-28T00:49:59.734Z,97002.66
2023-10-28T00:51:02.891Z,97006.34
2023-10-28T00:52:05.555Z,97008.59
2023-10-28T00:53:08.176Z,97001.50
2023-10-28T00:54:11.644Z,97009.00
2023-10-28T00:55:16.112Z,97001.13
2023-10-28T00:56:20.234Z,97002.09
2023-10-28T00:57:23.585Z,96998.94
2023-10-28T00:58:28.283Z,97011.22
2023-10-28T00:59:32.020Z,97001.44
2023-10-28T01:00:34.581Z,97005.56
2023-10-28T01:01:37.189Z,97007.38
2023-10-28T01:02:41.903Z,97009.16
2023-10-28T01:03:45.573Z,97015.22
2023-10-28T01:04:47.976Z,97021.75
2023-10-28T01:05:50.388Z,97008.44
2023-10-28T01:06:52.779Z,97019.09
2023-10-28T01:07:55.187Z,97011.69
2023-10-28T01:08:57.513Z,97012.81
2023-10-28T01:10:00.486Z,97021.56
2023-10-28T01:11:03.177Z,97020.34
2023-10-28T01:12:07.796Z,97008.75
2023-10-28T01:13:10.253Z,97017.47
2023-10-28T01:14:12.824Z,97012.72
2023-10-28T01:15:15.113Z,97017.66
2023-10-28T01:16:17.544Z,97014.19
2023-10-28T01:17:22.798Z,97021.00
2023-10-28T01:18:25.247Z,97014.38
2023-10-28T01:19:27.787Z,97019.31
2023-10-28T01:20:30.485Z,97012.66
2023-10-28T01:21:32.866Z,97028.41
2023-10-28T01:22:35.747Z,97024.94
2023-10-28T01:23:38.476Z,97018.59
2023-10-28T01:24:41.456Z,97020.50
2023-10-28T01:25:43.857Z,97025.44
2023-10-28T01:26:46.337Z,97024.97
2023-10-28T01:27:48.709Z,97018.66
2023-10-28T01:28:51.886Z,97023.59
2023-10-28T01:29:55.145Z,97017.84
2023-10-28T01:30:57.429Z,97018.53
2023-10-28T01:32:00.154Z,97024.25
2023-10-28T01:33:04.116Z,97019.53
2023-10-28T01:34:06.557Z,97024.13
2023-10-28T01:35:14.398Z,97022.56
2023-10-28T01:36:18.028Z,97024.75
2023-10-28T01:37:21.833Z,97028.91
2023-10-28T01:38:24.855Z,97033.53
2023-10-28T01:39:27.604Z,97026.09
2023-10-28T01:40:30.206Z,97022.94
2023-10-28T01:41:33.020Z,97031.31
2023-10-28T01:42:36.123Z,97025.47
2023-10-28T01:43:38.401Z,97042.44
2023-10-28T01:44:41.546Z,97028.50
2023-10-28T01:45:43.909Z,97045.81
2023-10-28T01:46:47.119Z,97039.16
2023-10-28T01:47:50.030Z,97040.28
2023-10-28T01:48:52.428Z,97042.50
2023-10-28T01:49:54.976Z,97037.41
2023-10-28T01:50:57.670Z,97040.88
2023-10-28T01:52:00.202Z,97042.00
2023-10-28T01:53:04.844Z,97049.63
2023-10-28T01:54:07.491Z,97048.38
2023-10-28T01:55:10.866Z,97039.97
2023-10-28T01:56:13.458Z,97044.91
2023-10-28T01:57:16.151Z,97054.44
2023-10-28T01:58:19.175Z,97050.16
2023-10-28T01:59:22.596Z,97053.66
2023-10-28T02:00:31.901Z,97060.13
2023-10-28T02:01:35.957Z,97058.56
2023-10-28T02:02:39.038Z,97054.63
2023-10-28T02:03:41.463Z,97066.53
2023-10-28T02:04:43.815Z,97058.44
2023-10-28T02:05:46.206Z,97055.28
2023-10-28T02:06:51.401Z,97059.09
2023-10-28T02:07:53.675Z,97057.50
2023-10-28T02:08:57.660Z,97063.38
2023-10-28T02:10:01.082Z,97062.13
2023-10-28T02:11:05.088Z,97052.13
2023-10-28T02:12:07.741Z,97064.81
2023-10-28T02:13:10.875Z,97060.84
2023-10-28T02:14:13.312Z,97061.16
2023-10-28T02:15:15.716Z,97058.47
2023-10-28T02:16:18.330Z,97063.06
2023-10-28T02:17:20.632Z,97061.50
2023-10-28T02:18:24.523Z,97061.03
2023-10-28T02:19:28.097Z,97053.72
2023-10-28T02:20:30.377Z,97062.59
2023-10-28T02:21:32.988Z,97066.75
2023-10-28T02:22:35.681Z,97058.66
2023-10-28T02:23:38.396Z,97064.38
2023-10-28T02:24:41.031Z,97066.28
2023-10-28T02:25:43.804Z,97054.22
2023-10-28T02:26:47.407Z,97057.72
2023-10-28T02:27:50.037Z,97063.88
2023-10-28T02:28:52.404Z,97063.44
2023-10-28T02:29:54.837Z,97066.13
2023-10-28T02:30:57.337Z,97066.44
2023-10-28T02:31:59.789Z,97064.41
2023-10-28T02:33:02.551Z,97071.72
2023-10-28T02:34:08.189Z,97061.38
2023-10-28T02:35:10.648Z,97065.53
2023-10-28T02:36:14.049Z,97068.22
2023-10-28T02:37:17.008Z,97072.81
2023-10-28T02:38:20.672Z,97071.53
2023-10-28T02:39:23.169Z,97076.13
2023-10-28T02:40:25.422Z,97071.88
2023-10-28T02:41:28.016Z,97074.88
2023-10-28T02:42:30.666Z,97077.91
2023-10-28T02:43:34.190Z,97077.13
2023-10-28T02:44:38.129Z,97081.72
2023-10-28T02:45:40.504Z,97087.13
2023-10-28T02:46:43.182Z,97086.31
2023-10-28T02:47:45.505Z,97091.25
2023-10-28T02:48:47.881Z,97090.47
2023-10-28T02:49:50.203Z,97088.56
2023-10-28T02:50:52.784Z,97090.47
2023-10-28T02:51:55.037Z,97090.47
2023-10-28T02:53:01.531Z,97085.41
2023-10-28T02:54:04.055Z,97080.31
2023-10-28T02:55:07.015Z,97076.53
2023-10-28T02:56:09.914Z,97079.22
2023-10-28T02:57:12.229Z,97078.41
2023-10-28T02:58:14.435Z,97074.13
2023-10-28T02:59:17.031Z,97083.00
2023-10-28T03:00:19.456Z,97085.22
2023-10-28T03:01:22.388Z,97079.84
2023-10-28T03:02:24.954Z,97077.13
2023-10-28T03:03:27.698Z,97087.13
2023-10-28T03:04:30.002Z,97083.66
2023-10-28T03:05:33.329Z,97082.06
2023-10-28T03:06:35.811Z,97083.16
2023-10-28T03:07:39.921Z,97082.06
2023-10-28T03:08:42.911Z,97083.16
2023-10-28T03:09:45.244Z,97085.38
2023-10-28T03:10:47.841Z,97088.06
2023-10-28T03:11:53.527Z,97083.16
2023-10-28T03:12:56.167Z,97077.28
2023-10-28T03:13:58.483Z,97080.00
2023-10-28T03:15:01.122Z,97081.09
2023-10-28T03:16:05.604Z,97080.63
2023-10-28T03:17:07.988Z,97079.03
2023-10-28T03:18:10.292Z,97079.53
2023-10-28T03:19:13.252Z,97081.44
2023-10-28T03:20:20.664Z,97078.75
2023-10-28T03:21:23.391Z,97077.78
2023-10-28T03:22:25.711Z,97077.78
2023-10-28T03:23:28.288Z,97070.81
2023-10-28T03:24:30.905Z,97077.78
2023-10-28T03:25:34.428Z,97080.00
2023-10-28T03:26:36.822Z,97081.91
2023-10-28T03:27:40.926Z,97080.00
2023-10-28T03:28:43.423Z,97080.34
2023-10-28T03:29:47.027Z,97081.44
2023-10-28T03:30:49.712Z,97086.84
2023-10-28T03:31:52.365Z,97081.78
2023-10-28T03:32:54.820Z,97078.28
2023-10-28T03:33:57.546Z,97086.38
2023-10-28T03:34:59.848Z,97082.06
2023-10-28T03:36:02.456Z,97087.44
2023-10-28T03:37:04.865Z,97081.47
2023-10-28T03:38:07.409Z,97085.13
2023-10-28T03:39:09.703Z,97086.06
2023-10-28T03:40:12.881Z,97083.34
2023-10-28T03:41:15.416Z,97087.00
2023-10-28T03:42:18.048Z,97085.41
2023-10-28T03:43:21.378Z,97087.00
2023-10-28T03:44:23.667Z,97076.22
2023-10-28T03:45:26.135Z,97083.19
2023-10-28T03:46:28.570Z,97082.38
2023-10-28T03:47:31.970Z,97081.59
2023-10-28T03:48:35.289Z,97086.38
2023-10-28T03:49:38.204Z,97083.66
2023-10-28T03:50:41.094Z,97080.16
2023-10-28T03:51:44.161Z,97084.28
2023-10-28T03:52:46.533Z,97081.59
2023-10-28T03:53:49.156Z,97086.53
2023-10-28T03:54:51.613Z,97088.09
2023-10-28T03:55:54.032Z,97088.09
2023-10-28T03:56:57.100Z,97085.41
2023-10-28T03:57:59.856Z,97086.53
2023-10-28T03:59:02.210Z,97086.53
2023-10-28T04:00:05.004Z,97083.81
2023-10-28T04:01:08.105Z,97083.03
2023-10-28T04:02:10.487Z,97085.72
2023-10-28T04:03:13.782Z,97088.44
2023-10-28T04:04:16.403Z,97080.66
2023-10-28T04:05:19.746Z,97078.63
2023-10-28T04:06:22.104Z,97086.38
2023-10-28T04:07:24.556Z,97085.91
2023-10-28T04:08:26.969Z,97095.56
2023-10-28T04:09:29.818Z,97081.31
2023-10-28T04:10:32.670Z,97086.19
2023-10-28T04:11:35.055Z,97091.13
2023-10-28T04:12:40.023Z,97090.81
2023-10-28T04:13:42.530Z,97087.31
2023-10-28T04:14:45.527Z,97090.34
2023-10-28T04:15:48.205Z,97087.63
2023-10-28T04:16:51.963Z,97088.44
2023-10-28T04:17:54.589Z,97096.03
2023-10-28T04:18:57.472Z,97095.25
2023-10-28T04:20:01.040Z,97089.88
2023-10-28T04:21:03.460Z,97094.47
2023-10-28T04:22:06.112Z,97098.28
2023-10-28T04:23:08.604Z,97096.38
2023-10-28T04:24:11.854Z,97094.47
2023-10-28T04:25:14.177Z,97095.25
2023-10-28T04:26:16.528Z,97088.28
2023-10-28T04:27:19.243Z,97096.69
2023-10-28T04:28:21.641Z,97099.38
2023-10-28T04:29:24.203Z,97088.94
2023-10-28T04:30:26.509Z,97097.81
2023-10-28T04:31:29.537Z,97100.50
2023-10-28T04:32:32.754Z,97100.50
2023-10-28T04:33:35.144Z,97093.22
2023-10-28T04:34:52.184Z,97089.72
2023-10-28T04:35:57.426Z,97092.09
2023-10-28T04:37:00.270Z,97097.47
2023-10-28T04:38:02.623Z,97087.66
2023-10-28T04:39:05.149Z,97086.72
2023-10-28T04:40:08.047Z,97090.50
2023-10-28T04:41:10.292Z,97085.13
2023-10-28T04:42:12.664Z,97094.31
2023-10-28T04:43:15.397Z,97099.06
2023-10-28T04:44:17.739Z,97085.59
2023-10-28T04:45:22.610Z,97089.41
2023-10-28T04:46:25.388Z,97085.28
2023-10-28T04:47:27.834Z,97086.38
2023-10-28T04:48:30.274Z,97086.06
2023-10-28T04:49:32.713Z,97084.47
2023-10-28T04:50:34.984Z,97086.06
2023-10-28T04:51:37.527Z,97085.28
2023-10-28T04:52:41.135Z,97082.25
2023-10-28T04:53:43.566Z,97090.00
2023-10-28T04:54:45.794Z,97082.72
2023-10-28T04:55:48.239Z,97083.84
2023-10-28T04:56:50.562Z,97086.19
2023-10-28T04:57:52.896Z,97087.31
2023-10-28T04:58:56.084Z,97083.50
2023-10-28T04:59:58.607Z,97080.81
2023-10-28T05:01:01.221Z,97084.28
2023-10-28T05:02:03.825Z,97086.69
2023-10-28T05:03:06.489Z,97076.72
2023-10-28T05:04:12.118Z,97080.19
2023-10-28T05:05:15.648Z,97084.78
2023-10-28T05:06:17.941Z,97077.19
2023-10-28T05:07:20.408Z,97074.81
2023-10-28T05:08:22.773Z,97077.19
2023-10-28T05:09:25.342Z,97077.19
2023-10-28T05:10:28.473Z,97070.22
2023-10-28T05:11:32.789Z,97073.69
2023-10-28T05:12:35.155Z,97076.06
2023-10-28T05:13:37.375Z,97070.69
2023-10-28T05:14:39.928Z,97074.16
2023-10-28T05:15:42.273Z,97068.78
2023-10-28T05:16:44.757Z,97071.47
2023-10-28T05:17:47.110Z,97071.47
2023-10-28T05:18:49.410Z,97074.94
2023-10-28T05:19:52.916Z,97072.25
2023-10-28T05:20:55.291Z,97078.44
2023-10-28T05:21:57.700Z,97071.47
2023-10-28T05:23:00.287Z,97075.75
2023-10-28T05:24:02.667Z,97071.16
2023-10-28T05:25:06.979Z,97070.03
2023-10-28T05:26:09.430Z,97076.22
2023-10-28T05:27:11.869Z,97077.66
2023-10-28T05:28:14.385Z,97078.13
2023-10-28T05:29:17.623Z,97071.94
2023-10-28T05:30:21.548Z,97077.78
2023-10-28T05:31:24.751Z,97071.59
2023-10-28T05:32:31.397Z,97068.91
2023-10-28T05:33:33.834Z,97070.81
2023-10-28T05:34:36.086Z,97074.63
2023-10-28T05:35:38.447Z,97074.31
2023-10-28T05:36:41.091Z,97075.41
2023-10-28T05:37:43.615Z,97070.81
2023-10-28T05:38:46.213Z,97072.41
2023-10-28T05:39:48.802Z,97070.81
2023-10-28T05:40:51.512Z,97076.22
2023-10-28T05:41:54.156Z,97084.75
2023-10-28T05:42:56.586Z,97082.06
2023-10-28T05:43:58.987Z,97083.97
2023-10-28T05:45:01.435Z,97083.66
2023-10-28T05:46:04.121Z,97090.66
2023-10-28T05:47:08.446Z,97082.84
2023-10-28T05:48:10.925Z,97086.66
2023-10-28T05:49:14.090Z,97086.38
2023-10-28T05:50:16.551Z,97085.53
2023-10-28T05:51:21.727Z,97089.84
2023-10-28T05:52:24.291Z,97078.28
2023-10-28T05:53:26.880Z,97087.63
2023-10-28T05:54:29.240Z,97089.53
2023-10-28T05:55:31.695Z,97095.72
2023-10-28T05:56:36.517Z,97089.06
2023-10-28T05:57:39.678Z,97090.31
2023-10-28T05:58:42.081Z,97089.53
2023-10-28T05:59:44.929Z,97087.16
2023-10-28T06:00:47.485Z,97090.66
2023-10-28T06:01:50.180Z,97098.72
2023-10-28T06:02:53.080Z,97100.31
2023-10-28T06:03:55.554Z,97097.63
2023-10-28T06:04:57.899Z,97102.22
2023-10-28T06:06:00.338Z,97104.13
2023-10-28T06:07:02.735Z,97111.41
2023-10-28T06:08:05.316Z,97111.72
2023-10-28T06:09:11.215Z,97110.13
2023-10-28T06:10:13.535Z,97108.41
2023-10-28T06:11:15.970Z,97116.00
2023-10-28T06:12:18.295Z,97115.19
2023-10-28T06:13:21.389Z,97112.50
2023-10-28T06:14:23.941Z,97121.41
2023-10-28T06:15:26.330Z,97116.31
2023-10-28T06:16:28.851Z,97121.41
2023-10-28T06:17:31.109Z,97117.09
2023-10-28T06:18:33.411Z,97125.97
2023-10-28T06:19:35.705Z,97129.78
2023-10-28T06:20:38.152Z,97129.78
2023-10-28T06:21:40.692Z,97126.78
2023-10-28T06:22:43.873Z,97132.19
2023-10-28T06:23:46.212Z,97130.56
2023-10-28T06:24:50.322Z,97133.25
2023-10-28T06:25:52.857Z,97125.97
2023-10-28T06:26:56.458Z,97133.25
2023-10-28T06:27:58.862Z,97136.47
2023-10-28T06:29:01.149Z,97141.06
2023-10-28T06:30:04.129Z,97132.19
2023-10-28T06:31:07.125Z,97135.97
2023-10-28T06:32:09.872Z,97135.97
2023-10-28T06:33:13.431Z,97133.25
2023-10-28T06:34:16.129Z,97138.66
2023-10-28T06:35:18.990Z,97148.34
2023-10-28T06:36:21.725Z,97143.75
2023-10-28T06:37:24.953Z,97141.66
2023-10-28T06:38:29.233Z,97139.78
2023-10-28T06:39:35.685Z,97139.16
2023-10-28T06:40:41.915Z,97154.81
2023-10-28T06:41:44.283Z,97141.66
2023-10-28T06:42:46.848Z,97144.38
2023-10-28T06:43:49.154Z,97148.97
2023-10-28T06:44:51.616Z,97145.94
2023-10-28T06:45:54.807Z,97148.97
2023-10-28T06:46:57.459Z,97162.13
2023-10-28T06:47:59.786Z,97155.16
2023-10-28T06:49:02.364Z,97165.47
2023-10-28T06:50:07.790Z,97160.53
2023-10-28T06:51:13.867Z,97164.81
2023-10-28T06:52:16.442Z,97154.81
2023-10-28T06:53:18.828Z,97162.13
2023-10-28T06:54:21.965Z,97166.25
2023-10-28T06:55:25.418Z,97169.72
2023-10-28T06:56:27.851Z,97170.53
2023-10-28T06:57:32.066Z,97175.91
2023-10-28T06:58:34.509Z,97175.91
2023-10-28T06:59:37.061Z,97169.72
2023-10-28T07:00:39.358Z,97173.88
2023-10-28T07:01:41.643Z,97184.63
2023-10-28T07:02:45.392Z,97175.44
2023-10-28T07:03:48.999Z,97175.44
2023-10-28T07:04:52.056Z,97174.66
2023-10-28T07:05:54.435Z,97177.34
2023-10-28T07:06:57.072Z,97177.03
2023-10-28T07:07:59.417Z,97177.34
2023-10-28T07:09:01.720Z,97181.94
2023-10-28T07:10:04.499Z,97181.94
2023-10-28T07:11:06.992Z,97183.22
2023-10-28T07:12:09.713Z,97181.94
2023-10-28T07:13:13.689Z,97182.75
2023-10-28T07:14:16.048Z,97183.06
2023-10-28T07:15:19.547Z,97194.94
2023-10-28T07:16:21.915Z,97191.16
2023-10-28T07:17:24.429Z,97198.91
2023-10-28T07:18:27.581Z,97192.72
2023-10-28T07:19:30.113Z,97195.75
2023-10-28T07:20:32.340Z,97199.22
2023-10-28T07:21:35.203Z,97203.03
2023-10-28T07:22:37.668Z,97196.06
2023-10-28T07:23:40.102Z,97193.84
2023-10-28T07:24:42.510Z,97192.25
2023-10-28T07:25:45.560Z,97203.34
2023-10-28T07:26:48.027Z,97206.53
2023-10-28T07:27:50.359Z,97202.72
2023-10-28T07:28:52.666Z,97200.03
2023-10-28T07:29:55.136Z,97198.59
2023-10-28T07:30:58.988Z,97193.50
2023-10-28T07:32:01.676Z,97198.91
2023-10-28T07:33:04.169Z,97195.75
2023-10-28T07:34:09.169Z,97207.00
2023-10-28T07:35:11.891Z,97200.81
2023-10-28T07:36:14.444Z,97203.50
2023-10-28T07:37:17.097Z,97203.50
2023-10-28T07:38:20.694Z,97198.91
2023-10-28T07:39:23.271Z,97198.13
2023-10-28T07:40:25.478Z,97205.09
2023-10-28T07:41:31.188Z,97205.09
2023-10-28T07:42:35.677Z,97201.59
2023-10-28T07:43:38.457Z,97207.00
2023-10-28T07:44:41.667Z,97208.88
2023-10-28T07:45:44.903Z,97205.88
2023-10-28T07:46:48.069Z,97205.41
2023-10-28T07:47:50.525Z,97208.88
2023-10-28T07:48:54.561Z,97205.41
2023-10-28T07:49:57.602Z,97204.28
2023-10-28T07:51:00.994Z,97216.19
2023-10-28T07:52:04.395Z,97219.66
2023-10-28T07:53:07.353Z,97221.91
2023-10-28T07:54:10.676Z,97226.16
2023-10-28T07:55:13.273Z,97224.28
2023-10-28T07:56:16.095Z,97229.97
2023-10-28T07:57:18.369Z,97234.25
2023-10-28T07:58:20.942Z,97241.88
2023-10-28T07:59:23.596Z,97240.75
2023-10-28T08:00:27.419Z,97237.75
2023-10-28T08:01:30.769Z,97234.25
2023-10-28T08:02:33.620Z,97248.06
2023-10-28T08:03:36.518Z,97235.38
2023-10-28T08:04:38.980Z,97229.50
2023-10-28T08:05:41.359Z,97240.28
2023-10-28T08:06:44.062Z,97234.56
2023-10-28T08:07:49.050Z,97244.72
2023-10-28T08:08:54.944Z,97242.34
2023-10-28T08:09:57.811Z,97243.94
2023-10-28T08:11:04.166Z,97240.91
2023-10-28T08:12:06.749Z,97249.63
2023-10-28T08:13:09.237Z,97248.06
2023-10-28T08:14:11.660Z,97247.25
2023-10-28T08:15:14.316Z,97256.13
2023-10-28T08:16:20.506Z,97257.72
2023-10-28T08:17:23.123Z,97253.75
2023-10-28T08:18:25.870Z,97249.16
2023-10-28T08:19:30.500Z,97249.16
2023-10-28T08:20:32.877Z,97251.53
2023-10-28T08:21:35.905Z,97249.94
2023-10-28T08:22:38.782Z,97261.19
2023-10-28T08:23:41.726Z,97259.16
2023-10-28T08:24:44.016Z,97251.84
2023-10-28T08:25:48.064Z,97251.84
2023-10-28T08:26:50.811Z,97252.66
2023-10-28T08:27:53.537Z,97246.47
2023-10-28T08:28:56.010Z,97242.97
2023-10-28T08:29:58.465Z,97246.47
2023-10-28T08:31:00.836Z,97246.47
2023-10-28T08:32:03.254Z,97252.66
2023-10-28T08:33:05.786Z,97253.75
2023-10-28T08:34:08.281Z,97247.25
2023-10-28T08:35:11.006Z,97251.84
2023-10-28T08:36:13.599Z,97255.34
2023-10-28T08:37:16.132Z,97260.72
2023-10-28T08:38:19.004Z,97257.25
2023-10-28T08:39:21.428Z,97259.63
2023-10-28T08:40:24.002Z,97262.00
2023-10-28T08:41:26.354Z,97264.22
2023-10-28T08:42:28.794Z,97261.19
2023-10-28T08:43:35.632Z,97258.66
2023-10-28T08:44:39.651Z,97262.16
2023-10-28T08:45:43.902Z,97260.88
2023-10-28T08:46:49.487Z,97254.38
2023-10-28T08:47:52.871Z,97255.50
2023-10-28T08:48:58.857Z,97255.97
2023-10-28T08:50:07.285Z,97253.59
2023-10-28T08:51:11.466Z,97261.69
2023-10-28T08:52:19.180Z,97257.06
2023-10-28T08:53:22.420Z,97256.28
2023-10-28T08:54:28.213Z,97258.19
2023-10-28T08:55:31.616Z,97256.59
2023-10-28T08:56:36.264Z,97260.09
2023-10-28T08:57:45.613Z,97258.34
2023-10-28T08:58:51.291Z,97258.19
2023-10-28T08:59:54.116Z,97255.19
2023-10-28T09:01:00.621Z,97252.47
2023-10-28T09:02:09.132Z,97258.66
2023-10-28T09:03:14.235Z,97258.66
2023-10-28T09:04:16.869Z,97262.78
2023-10-28T09:05:21.461Z,97262.47
2023-10-28T09:06:23.950Z,97264.06
2023-10-28T09:07:26.305Z,97261.34
2023-10-28T09:08:29.022Z,97261.69
2023-10-28T09:09:31.381Z,97266.75
2023-10-28T09:10:35.720Z,97262.78
2023-10-28T09:11:38.287Z,97261.19
2023-10-28T09:12:41.891Z,97261.19
2023-10-28T09:13:46.308Z,97265.16
2023-10-28T09:14:49.204Z,97254.06
2023-10-28T09:15:52.722Z,97259.44
2023-10-28T09:16:56.995Z,97259.44
2023-10-28T09:18:02.207Z,97255.19
2023-10-28T09:19:04.774Z,97259.44
2023-10-28T09:20:13.620Z,97254.06
2023-10-28T09:21:17.174Z,97263.91
2023-10-28T09:22:19.720Z,97256.94
2023-10-28T09:23:22.326Z,97259.94
2023-10-28T09:24:24.754Z,97260.44
2023-10-28T09:25:27.083Z,97256.16
2023-10-28T09:26:30.280Z,97262.81
2023-10-28T09:27:33.270Z,97258.19
2023-10-28T09:28:35.926Z,97253.59
2023-10-28T09:29:38.753Z,97271.69
2023-10-28T09:30:48.264Z,97266.91
2023-10-28T09:31:51.769Z,97252.50
2023-10-28T09:32:58.893Z,97256.78
2023-10-28T09:34:02.446Z,97267.88
2023-10-28T09:35:08.670Z,97259.47
2023-10-28T09:36:11.258Z,97258.34
2023-10-28T09:37:14.173Z,97267.56
2023-10-28T09:38:17.012Z,97268.34
2023-10-28T09:39:20.048Z,97265.97
2023-10-28T09:40:22.587Z,97267.56
2023-10-28T09:41:26.015Z,97261.84
2023-10-28T09:42:32.957Z,97255.81
2023-10-28T09:43:38.025Z,97255.81
2023-10-28T09:44:41.790Z,97255.53
2023-10-28T09:45:52.073Z,97256.50
2023-10-28T09:47:06.190Z,97258.22
2023-10-28T09:48:18.642Z,97255.84
2023-10-28T09:49:24.422Z,97257.56
2023-10-28T09:50:30.609Z,97251.38
2023-10-28T09:51:34.558Z,97255.66
2023-10-28T09:52:40.301Z,97254.09
2023-10-28T09:53:45.114Z,97250.59
2023-10-28T09:54:52.271Z,97251.09
2023-10-28T09:55:58.467Z,97247.59
2023-10-28T09:57:02.922Z,97255.66
2023-10-28T09:58:24.006Z,97257.28
2023-10-28T09:59:28.785Z,97264.25
2023-10-28T10:00:32.852Z,97270.75
2023-10-28T10:02:15.331Z,97253.31
2023-10-28T10:03:53.113Z,97261.09
2023-10-28T10:05:08.628Z,97264.13
2023-10-28T10:06:12.257Z,97264.25
2023-10-28T10:07:15.158Z,97260.59
2023-10-28T10:08:23.090Z,97264.56
2023-10-28T10:09:25.584Z,97267.28
2023-10-28T10:10:27.841Z,97268.63
2023-10-28T10:11:30.466Z,97271.22
2023-10-28T10:12:33.194Z,97272.63
2023-10-28T10:13:47.473Z,97264.72
2023-10-28T10:14:50.859Z,97267.56
2023-10-28T10:16:05.023Z,97264.41
2023-10-28T10:17:39.908Z,97263.94
2023-10-28T10:18:51.249Z,97269.19
2023-10-28T10:19:53.871Z,97263.16
2023-10-28T10:21:08.983Z,97260.31
2023-10-28T10:22:11.464Z,97256.97
2023-10-28T10:23:15.432Z,97258.53
2023-10-28T10:24:19.333Z,97263.75
2023-10-28T10:25:40.766Z,97260.13
2023-10-28T10:26:53.664Z,97263.16
2023-10-28T10:28:06.271Z,97268.53
2023-10-28T10:29:09.718Z,97265.06
2023-10-28T10:30:12.515Z,97269.97
2023-10-28T10:31:18.235Z,97266.78
2023-10-28T10:32:20.853Z,97266.44
2023-10-28T10:33:32.208Z,97271.69
2023-10-28T10:34:41.318Z,97265.66
2023-10-28T10:35:50.098Z,97259.66
2023-10-28T10:36:52.463Z,97265.66
2023-10-28T10:38:28.347Z,97269.34
2023-10-28T10:39:42.020Z,97265.06
2023-10-28T10:40:54.089Z,97272.50
2023-10-28T10:42:00.449Z,97269.97
2023-10-28T10:43:12.806Z,97267.09
2023-10-28T10:44:41.975Z,97272.81
2023-10-28T10:45:44.838Z,97268.84
2023-10-28T10:46:47.579Z,97269.78
2023-10-28T10:47:50.449Z,97282.75
2023-10-28T10:48:52.721Z,97273.09
2023-10-28T10:49:55.580Z,97273.09
2023-10-28T10:51:00.980Z,97268.50
2023-10-28T10:52:04.302Z,97265.00
2023-10-28T10:53:06.908Z,97260.41
2023-10-28T10:54:09.253Z,97262.63
2023-10-28T10:55:11.605Z,97263.91
2023-10-28T10:56:21.376Z,97265.66
2023-10-28T10:57:23.669Z,97267.69
2023-10-28T10:58:26.143Z,97273.09
2023-10-28T10:59:35.084Z,97263.59
2023-10-28T11:00:38.283Z,97273.09
2023-10-28T11:01:40.855Z,97278.50
2023-10-28T11:02:43.713Z,97265.50
2023-10-28T11:03:46.507Z,97280.38
2023-10-28T11:04:48.951Z,97282.75
2023-10-28T11:05:52.590Z,97281.19
2023-10-28T11:06:55.808Z,97281.19
2023-10-28T11:07:59.508Z,97281.19
2023-10-28T11:09:06.708Z,97280.56
2023-10-28T11:10:09.521Z,97281.19
2023-10-28T11:11:14.542Z,97280.38
2023-10-28T11:12:22.076Z,97286.56
2023-10-28T11:13:26.225Z,97283.88
2023-10-28T11:14:28.709Z,97285.47
2023-10-28T11:15:34.031Z,97293.25
2023-10-28T11:16:36.756Z,97286.28
2023-10-28T11:17:41.771Z,97283.88
2023-10-28T11:18:44.767Z,97271.19
2023-10-28T11:19:52.099Z,97273.28
2023-10-28T11:20:54.931Z,97285.00
2023-10-28T11:21:57.629Z,97276.59
2023-10-28T11:23:00.380Z,97273.88
2023-10-28T11:24:04.648Z,97261.19
2023-10-28T11:25:08.643Z,97267.41
2023-10-28T11:26:11.106Z,97268.81
2023-10-28T11:27:21.050Z,97265.97
2023-10-28T11:28:33.214Z,97273.09
2023-10-28T11:29:39.515Z,97271.38
2023-10-28T11:30:49.941Z,97281.53
2023-10-28T11:31:52.396Z,97283.59
2023-10-28T11:32:55.988Z,97283.41
2023-10-28T11:34:03.399Z,97277.88
2023-10-28T11:35:06.204Z,97281.50
2023-10-28T11:36:09.283Z,97281.03
2023-10-28T11:37:12.889Z,97284.19
2023-10-28T11:38:15.196Z,97279.91
2023-10-28T11:39:19.105Z,97284.19
2023-10-28T11:40:22.455Z,97284.50
2023-10-28T11:41:26.410Z,97288.78
2023-10-28T11:42:32.489Z,97297.34
2023-10-28T11:43:35.724Z,97302.44
2023-10-28T11:44:40.410Z,97299.75
2023-10-28T11:45:44.285Z,97300.56
2023-10-28T11:46:48.020Z,97304.81
2023-10-28T11:47:52.359Z,97300.56
2023-10-28T11:48:57.156Z,97300.22
2023-10-28T11:49:59.657Z,97295.94
2023-10-28T11:51:03.670Z,97300.56
2023-10-28T11:52:06.605Z,97279.47
2023-10-28T11:53:09.270Z,97279.78
2023-10-28T11:54:11.877Z,97269.78
2023-10-28T11:55:14.690Z,97274.06
2023-10-28T11:56:17.310Z,97262.81
2023-10-28T11:57:19.861Z,97264.41
2023-10-28T11:58:25.754Z,97265.97
2023-10-28T11:59:28.365Z,97264.41
2023-10-28T12:00:30.717Z,97271.38
2023-10-28T12:01:35.495Z,97267.88
2023-10-28T12:02:37.834Z,97261.38
2023-10-28T12:03:40.113Z,97256.78
2023-10-28T12:04:42.407Z,97249.50
2023-10-28T12:05:45.062Z,97261.38
2023-10-28T12:06:47.868Z,97244.41
2023-10-28T12:07:50.182Z,97256.78
2023-10-28T12:08:53.419Z,97260.59
2023-10-28T12:09:55.821Z,97260.59
2023-10-28T12:10:58.135Z,97265.97
2023-10-28T12:12:00.495Z,97266.31
2023-10-28T12:13:03.306Z,97267.09
2023-10-28T12:14:09.456Z,97270.59
2023-10-28T12:15:11.870Z,97266.78
2023-10-28T12:16:14.234Z,97267.09
2023-10-28T12:17:16.604Z,97264.72
2023-10-28T12:18:20.056Z,97273.59
2023-10-28T12:19:22.470Z,97271.38
2023-10-28T12:20:24.871Z,97274.69
2023-10-28T12:21:27.369Z,97287.06
2023-10-28T12:22:30.099Z,97280.38
2023-10-28T12:23:32.832Z,97279.00
2023-10-28T12:24:36.116Z,97279.28
2023-10-28T12:25:38.436Z,97277.69
2023-10-28T12:26:41.088Z,97281.19
2023-10-28T12:27:45.493Z,97283.09
2023-10-28T12:28:50.983Z,97275.00